Aviation Digital Data Service (ADDS)

Output produced by TAFs form (1457 UTC 24 November 2014)
found at http://aviationweather.gov/adds/tafs/
 
KGUP 241121Z 2412/2512 VRB04KT P6SM SCT100 
     FM241900 29015G25KT P6SM SCT100 
     FM242200 33013G23KT P6SM SCT100 
     FM250200 35006KT P6SM SCT100